createdAt,value
2018-04-28T00:00:33.853Z,51.80
2018-04-28T00:03:02.381Z,52.20
2018-04-28T00:05:30.732Z,52.30
2018-04-28T00:07:58.458Z,52.30
2018-04-28T00:10:26.744Z,52.70
2018-04-28T00:12:54.339Z,52.60
2018-04-28T00:15:21.993Z,52.70
2018-04-28T00:17:49.571Z,52.60
2018-04-28T00:20:26.633Z,52.80
2018-04-28T00:23:01.015Z,52.90
2018-04-28T00:25:35.524Z,53.20
2018-04-28T00:28:05.817Z,53.20
2018-04-28T00:30:34.941Z,53.30
2018-04-28T00:33:04.138Z,53.30
2018-04-28T00:35:31.717Z,53.30
2018-04-28T00:37:59.456Z,53.60
2018-04-28T00:43:25.426Z,53.10
2018-04-28T00:46:04.790Z,53.60
2018-04-28T00:48:36.286Z,53.70
2018-04-28T00:51:04.585Z,53.70
2018-04-28T00:53:32.145Z,53.70
2018-04-28T00:56:05.882Z,54.20
2018-04-28T01:01:33.772Z,54.10
2018-04-28T01:04:19.034Z,54.70
2018-04-28T01:06:46.605Z,54.60
2018-04-28T01:09:14.941Z,54.50
2018-04-28T01:11:43.457Z,54.40
2018-04-28T01:14:12.758Z,54.50
2018-04-28T01:16:45.656Z,54.40
2018-04-28T01:22:13.774Z,53.70
2018-04-28T01:24:46.264Z,53.90
2018-04-28T01:27:34.550Z,53.50
2018-04-28T01:30:10.741Z,53.60
2018-04-28T01:35:43.937Z,53.10
2018-04-28T01:38:11.585Z,53.70
2018-04-28T01:40:40.781Z,54.20
2018-04-28T01:43:20.257Z,54.50
2018-04-28T01:45:52.652Z,54.40
2018-04-28T01:48:25.044Z,54.70
2018-04-28T01:50:58.161Z,54.50
2018-04-28T01:53:28.221Z,54.50
2018-04-28T01:56:00.290Z,54.50
2018-04-28T02:01:27.436Z,53.80
2018-04-28T02:06:59.686Z,54.30
2018-04-28T02:09:28.039Z,53.90
2018-04-28T02:12:01.264Z,54.00
2018-04-28T02:14:30.436Z,53.90
2018-04-28T02:17:11.846Z,54.10
2018-04-28T02:19:43.101Z,54.00
2018-04-28T02:22:31.349Z,53.80
2018-04-28T02:25:17.602Z,54.50
2018-04-28T02:28:02.429Z,54.00
2018-04-28T02:30:30.018Z,53.90
2018-04-28T02:33:02.588Z,53.90
2018-04-28T02:35:31.810Z,54.10
2018-04-28T02:38:10.738Z,53.90
2018-04-28T02:40:50.709Z,54.60
2018-04-28T02:43:18.286Z,54.50
2018-04-28T02:46:03.687Z,54.90
2018-04-28T02:48:34.114Z,54.90
2018-04-28T02:51:10.579Z,55.30
2018-04-28T02:53:46.961Z,55.10
2018-04-28T02:56:21.429Z,55.30
2018-04-28T02:59:00.670Z,55.20
2018-04-28T03:01:41.865Z,56.10
2018-04-28T03:04:09.411Z,55.50
2018-04-28T03:06:42.977Z,58.10
2018-04-28T03:09:11.497Z,56.90
2018-04-28T03:11:44.777Z,56.80
2018-04-28T03:14:19.385Z,57.40
2018-04-28T03:16:56.725Z,56.90
2018-04-28T03:19:24.273Z,57.30
2018-04-28T03:21:54.817Z,59.30
2018-04-28T03:24:26.200Z,59.10
2018-04-28T03:26:59.676Z,59.10
2018-04-28T03:29:30.964Z,59.30
2018-04-28T03:31:58.523Z,59.20
2018-04-28T03:34:39.318Z,59.30
2018-04-28T03:37:22.101Z,59.40
2018-04-28T03:40:01.767Z,60.50
2018-04-28T03:42:31.769Z,60.70
2018-04-28T03:44:59.357Z,60.00
2018-04-28T03:47:50.849Z,60.40
2018-04-28T03:50:22.084Z,59.50
2018-04-28T03:53:05.324Z,62.20
2018-04-28T03:55:32.888Z,63.00
2018-04-28T03:58:12.433Z,60.70
2018-04-28T04:00:52.005Z,60.50
2018-04-28T04:03:24.077Z,61.20
2018-04-28T04:05:59.380Z,61.10
2018-04-28T04:08:44.748Z,61.70
2018-04-28T04:11:37.313Z,62.00
2018-04-28T04:17:27.171Z,62.70
2018-04-28T04:23:33.998Z,62.50
2018-04-28T04:26:13.317Z,64.00
2018-04-28T04:28:48.686Z,63.90
2018-04-28T04:34:32.606Z,63.90
2018-04-28T04:37:00.983Z,64.30
2018-04-28T04:39:30.354Z,64.70
2018-04-28T04:45:05.530Z,64.50
2018-04-28T04:47:42.049Z,64.60
2018-04-28T04:50:17.853Z,65.40
2018-04-28T04:52:49.468Z,65.40
2018-04-28T04:55:27.849Z,66.20
2018-04-28T04:57:59.075Z,66.40
2018-04-28T05:00:38.471Z,67.10
2018-04-28T05:03:18.169Z,65.50
2018-04-28T05:05:53.574Z,64.80
2018-04-28T05:08:27.135Z,66.00
2018-04-28T05:11:02.185Z,66.20
2018-04-28T05:13:47.297Z,66.20
2018-04-28T05:16:22.737Z,66.60
2018-04-28T05:22:02.892Z,66.10
2018-04-28T05:25:05.326Z,63.50
2018-04-28T05:27:35.521Z,63.10
2018-04-28T05:30:18.913Z,62.90
2018-04-28T05:32:58.546Z,63.60
2018-04-28T05:38:39.626Z,62.10
2018-04-28T05:41:19.122Z,64.50
2018-04-28T05:43:58.659Z,64.60
2018-04-28T05:46:33.133Z,61.80
2018-04-28T05:52:32.995Z,62.30
2018-04-28T05:55:12.249Z,62.00
2018-04-28T05:58:00.525Z,61.50
2018-04-28T06:00:36.457Z,61.30
2018-04-28T06:03:15.941Z,61.10
2018-04-28T06:09:01.673Z,61.00
2018-04-28T06:11:41.295Z,59.90
2018-04-28T06:14:14.806Z,61.00
2018-04-28T06:16:51.931Z,61.20
2018-04-28T06:22:23.719Z,60.70
2018-04-28T06:24:52.058Z,62.50
2018-04-28T06:27:19.663Z,62.50
2018-04-28T06:29:47.321Z,63.20
2018-04-28T06:32:15.054Z,63.60
2018-04-28T06:34:42.861Z,60.90
2018-04-28T06:37:10.444Z,63.30
2018-04-28T06:39:38.064Z,62.40
2018-04-28T06:42:05.720Z,61.40
2018-04-28T06:44:33.309Z,62.80
2018-04-28T06:47:00.889Z,59.80
2018-04-28T06:49:28.510Z,60.10
2018-04-28T06:51:56.198Z,60.00
2018-04-28T06:54:23.797Z,60.10
2018-04-28T06:56:52.161Z,63.30
2018-04-28T06:59:19.949Z,63.30
2018-04-28T07:01:47.622Z,63.40
2018-04-28T07:04:15.205Z,63.60
2018-04-28T07:06:42.865Z,69.30
2018-04-28T07:09:10.490Z,64.30
2018-04-28T07:11:38.821Z,66.40
2018-04-28T07:14:06.432Z,66.30
2018-04-28T07:16:34.769Z,71.80
2018-04-28T07:19:02.354Z,71.80
2018-04-28T07:21:30.721Z,70.80
2018-04-28T07:23:58.332Z,70.70
2018-04-28T07:26:25.925Z,71.20
2018-04-28T07:28:53.473Z,74.10
2018-04-28T07:31:21.114Z,74.60
2018-04-28T07:33:48.813Z,71.70
2018-04-28T07:36:16.404Z,71.80
2018-04-28T07:38:43.967Z,70.40
2018-04-28T07:41:11.611Z,69.70
2018-04-28T07:43:40.001Z,72.90
2018-04-28T07:46:07.572Z,72.90
2018-04-28T07:48:35.189Z,66.50
2018-04-28T07:51:04.248Z,65.00
2018-04-28T07:53:31.929Z,64.90
2018-04-28T07:55:59.502Z,62.60
2018-04-28T07:58:27.120Z,62.30
2018-04-28T08:00:54.678Z,61.30
2018-04-28T08:03:22.261Z,55.70
2018-04-28T08:05:49.886Z,56.10
2018-04-28T08:08:17.538Z,55.20
2018-04-28T08:10:45.121Z,55.80
2018-04-28T08:13:12.721Z,56.30
2018-04-28T08:15:40.325Z,58.10
2018-04-28T08:18:07.904Z,58.80
2018-04-28T08:20:35.509Z,57.30
2018-04-28T08:23:03.894Z,59.60
2018-04-28T08:25:32.258Z,59.90
2018-04-28T08:28:00.585Z,58.80
2018-04-28T08:30:28.208Z,58.80
2018-04-28T08:32:56.610Z,58.70
2018-04-28T08:35:24.234Z,58.70
2018-04-28T08:37:52.593Z,61.60
2018-04-28T08:40:20.953Z,59.80
2018-04-28T08:42:48.513Z,59.80
2018-04-28T08:45:16.242Z,62.30
2018-04-28T08:47:43.833Z,65.20
2018-04-28T08:50:11.517Z,66.80
2018-04-28T08:52:39.243Z,63.40
2018-04-28T08:55:06.813Z,66.50
2018-04-28T08:57:34.515Z,68.30
2018-04-28T09:03:05.734Z,61.20
2018-04-28T09:05:33.322Z,64.70
2018-04-28T09:08:00.918Z,62.80
2018-04-28T09:10:28.514Z,65.10
2018-04-28T09:12:56.122Z,63.10
2018-04-28T09:15:23.709Z,61.30
2018-04-28T09:17:51.289Z,61.60
2018-04-28T09:20:18.964Z,62.00
2018-04-28T09:22:46.563Z,63.70
2018-04-28T09:25:14.909Z,63.10
2018-04-28T09:27:42.508Z,63.20
2018-04-28T09:30:10.114Z,62.40
2018-04-28T09:32:37.834Z,63.40
2018-04-28T09:35:05.430Z,65.80
2018-04-28T09:37:33.646Z,65.30
2018-04-28T09:40:02.026Z,68.90
2018-04-28T09:42:29.584Z,68.80
2018-04-28T09:44:57.945Z,74.40
2018-04-28T09:47:25.613Z,74.40
2018-04-28T09:49:53.965Z,68.20
2018-04-28T09:52:21.532Z,68.10
2018-04-28T09:54:49.094Z,69.80
2018-04-28T09:57:16.914Z,69.50
2018-04-28T09:59:44.495Z,69.30
2018-04-28T10:02:18.044Z,66.50
2018-04-28T10:04:45.772Z,67.90
2018-04-28T10:07:13.329Z,66.40
2018-04-28T10:09:40.933Z,66.90
2018-04-28T10:12:08.541Z,65.40
2018-04-28T10:14:36.120Z,65.70
2018-04-28T10:17:03.729Z,63.60
2018-04-28T10:19:31.389Z,63.60
2018-04-28T10:21:59.046Z,65.00
2018-04-28T10:24:26.613Z,62.50
2018-04-28T10:26:54.223Z,64.50
2018-04-28T10:29:22.574Z,64.00
2018-04-28T10:31:50.296Z,63.80
2018-04-28T10:34:17.870Z,63.90
2018-04-28T10:36:45.530Z,63.10
2018-04-28T10:39:13.273Z,63.60
2018-04-28T10:41:40.989Z,60.90
2018-04-28T10:44:08.598Z,58.90
2018-04-28T10:46:36.286Z,58.50
2018-04-28T10:49:03.872Z,58.60
2018-04-28T10:51:31.481Z,57.40
2018-04-28T10:53:59.183Z,57.00
2018-04-28T10:56:27.600Z,58.40
2018-04-28T10:58:55.174Z,57.60
2018-04-28T11:01:22.805Z,58.10
2018-04-28T11:03:51.323Z,59.90
2018-04-28T11:06:19.031Z,59.30
2018-04-28T11:08:46.595Z,59.80
2018-04-28T11:11:14.362Z,57.80
2018-04-28T11:13:42.704Z,58.60
2018-04-28T11:16:10.412Z,58.70
2018-04-28T11:18:38.753Z,58.30
2018-04-28T11:21:06.385Z,58.30
2018-04-28T11:23:34.285Z,58.70
2018-04-28T11:26:01.842Z,58.90
2018-04-28T11:28:29.415Z,57.90
2018-04-28T11:30:56.977Z,59.60
2018-04-28T11:33:25.476Z,58.60
2018-04-28T11:35:53.045Z,58.90
2018-04-28T11:38:20.672Z,59.20
2018-04-28T11:40:48.375Z,58.60
2018-04-28T11:43:15.983Z,59.80
2018-04-28T11:45:43.645Z,59.60
2018-04-28T11:48:11.470Z,58.60
2018-04-28T11:50:39.034Z,58.60
2018-04-28T11:53:06.639Z,59.00
2018-04-28T11:55:34.973Z,59.40
2018-04-28T11:58:02.721Z,59.30
2018-04-28T12:00:30.301Z,58.40
2018-04-28T12:02:59.741Z,58.60
2018-04-28T12:05:39.388Z,58.50
2018-04-28T12:08:21.798Z,58.40
2018-04-28T12:10:58.267Z,58.70
2018-04-28T12:13:30.273Z,58.40
2018-04-28T12:15:57.872Z,58.40
2018-04-28T12:18:26.356Z,58.90
2018-04-28T12:20:54.935Z,57.90
2018-04-28T12:23:23.194Z,57.90
2018-04-28T12:25:50.821Z,57.80
2018-04-28T12:28:18.453Z,57.00
2018-04-28T12:30:46.137Z,57.70
2018-04-28T12:33:13.826Z,57.40
2018-04-28T12:35:41.387Z,56.50
2018-04-28T12:38:10.502Z,56.00
2018-04-28T12:40:38.927Z,56.50
2018-04-28T12:43:06.489Z,56.50
2018-04-28T12:45:34.059Z,56.60
2018-04-28T12:48:01.754Z,57.10
2018-04-28T12:50:29.491Z,57.30
2018-04-28T12:52:57.793Z,54.70
2018-04-28T12:55:25.368Z,54.70
2018-04-28T12:57:53.701Z,55.60
2018-04-28T13:00:21.315Z,55.30
2018-04-28T13:02:48.952Z,55.70
2018-04-28T13:05:17.329Z,55.60
2018-04-28T13:07:45.717Z,56.00
2018-04-28T13:10:14.039Z,58.30
2018-04-28T13:12:41.703Z,58.20
2018-04-28T13:15:09.453Z,54.70
2018-04-28T13:17:37.086Z,54.40
2018-04-28T13:20:04.814Z,54.60
2018-04-28T13:22:32.430Z,55.50
2018-04-28T13:25:00.018Z,54.00
2018-04-28T13:27:27.598Z,53.00
2018-04-28T13:29:55.186Z,52.60
2018-04-28T13:32:22.737Z,53.00
2018-04-28T13:34:51.073Z,54.70
2018-04-28T13:37:18.687Z,54.60
2018-04-28T13:39:46.305Z,56.10
2018-04-28T13:42:13.889Z,58.00
2018-04-28T13:44:42.264Z,55.30
2018-04-28T13:47:10.613Z,53.90
2018-04-28T13:49:38.453Z,53.90
2018-04-28T13:52:06.153Z,54.40
2018-04-28T13:54:33.805Z,54.30
2018-04-28T13:57:01.370Z,54.40
2018-04-28T13:59:28.968Z,54.50
2018-04-28T14:01:56.553Z,55.10
2018-04-28T14:04:24.253Z,55.50
2018-04-28T14:06:52.666Z,55.00
2018-04-28T14:09:20.226Z,54.40
2018-04-28T14:11:48.008Z,54.70
2018-04-28T14:14:15.561Z,54.90
2018-04-28T14:16:43.161Z,53.90
2018-04-28T14:19:11.632Z,53.90
2018-04-28T14:21:39.226Z,53.50
2018-04-28T14:24:07.757Z,54.10
2018-04-28T14:26:35.445Z,54.10
2018-04-28T14:29:03.829Z,52.70
2018-04-28T14:31:32.187Z,52.40
2018-04-28T14:33:59.745Z,52.30
2018-04-28T14:36:27.292Z,53.40
2018-04-28T14:38:54.909Z,54.80
2018-04-28T14:41:22.552Z,53.30
2018-04-28T14:43:51.059Z,53.70
2018-04-28T14:46:18.729Z,53.70
2018-04-28T14:48:46.441Z,53.80
2018-04-28T14:51:14.804Z,52.80
2018-04-28T14:53:42.384Z,52.70
2018-04-28T14:56:10.754Z,52.50
2018-04-28T14:58:39.210Z,52.80
2018-04-28T15:01:06.777Z,52.70
2018-04-28T15:03:34.618Z,53.60
2018-04-28T15:06:02.189Z,53.50
2018-04-28T15:08:29.788Z,52.90
2018-04-28T15:10:58.124Z,52.60
2018-04-28T15:13:25.951Z,52.50
2018-04-28T15:15:53.513Z,53.70
2018-04-28T15:18:21.127Z,53.00
2018-04-28T15:20:48.702Z,54.00
2018-04-28T15:23:17.056Z,54.00
2018-04-28T15:25:44.649Z,53.90
2018-04-28T15:28:12.332Z,53.10
2018-04-28T15:30:39.949Z,53.60
2018-04-28T15:33:08.297Z,53.80
2018-04-28T15:35:35.885Z,53.80
2018-04-28T15:38:04.224Z,54.00
2018-04-28T15:40:31.839Z,54.00
2018-04-28T15:42:59.405Z,54.20
2018-04-28T15:45:26.997Z,54.10
2018-04-28T15:47:54.711Z,54.60
2018-04-28T15:50:22.314Z,54.90
2018-04-28T15:52:49.885Z,55.50
2018-04-28T15:55:17.570Z,55.20
2018-04-28T15:57:45.928Z,55.40
2018-04-28T16:00:13.522Z,55.40
2018-04-28T16:02:41.938Z,54.40
2018-04-28T16:05:09.483Z,54.40
2018-04-28T16:07:37.062Z,55.40
2018-04-28T16:10:04.731Z,56.30
2018-04-28T16:12:32.340Z,55.20
2018-04-28T16:15:00.785Z,54.90
2018-04-28T16:17:28.361Z,54.90
2018-04-28T16:19:56.782Z,54.80
2018-04-28T16:22:24.388Z,54.70
2018-04-28T16:24:51.998Z,55.20
2018-04-28T16:27:19.618Z,55.10
2018-04-28T16:29:47.204Z,55.70
2018-04-28T16:32:14.877Z,55.60
2018-04-28T16:34:42.533Z,56.30
2018-04-28T16:37:10.143Z,55.30
2018-04-28T16:39:37.811Z,55.80
2018-04-28T16:42:05.443Z,55.70
2018-04-28T16:44:33.053Z,57.00
2018-04-28T16:47:01.523Z,56.20
2018-04-28T16:49:29.921Z,56.70
2018-04-28T16:51:57.496Z,56.70
2018-04-28T16:54:25.153Z,56.90
2018-04-28T16:56:52.870Z,56.10
2018-04-28T16:59:20.485Z,56.20
2018-04-28T17:01:48.053Z,58.20
2018-04-28T17:04:15.650Z,56.30
2018-04-28T17:06:43.978Z,57.10
2018-04-28T17:09:11.596Z,56.40
2018-04-28T17:11:39.954Z,55.70
2018-04-28T17:14:07.596Z,55.60
2018-04-28T17:16:35.241Z,56.40
2018-04-28T17:19:02.953Z,56.50
2018-04-28T17:21:31.473Z,56.30
2018-04-28T17:23:59.067Z,56.30
2018-04-28T17:26:26.761Z,56.60
2018-04-28T17:28:54.334Z,56.90
2018-04-28T17:31:21.917Z,56.50
2018-04-28T17:33:49.664Z,56.40
2018-04-28T17:36:17.236Z,56.50
2018-04-28T17:38:44.813Z,56.60
2018-04-28T17:41:12.673Z,56.10
2018-04-28T17:43:40.265Z,56.40
2018-04-28T17:46:07.877Z,56.40
2018-04-28T17:48:35.469Z,56.60
2018-04-28T17:51:03.244Z,57.30
2018-04-28T17:53:30.846Z,57.30
2018-04-28T17:55:58.460Z,56.30
2018-04-28T17:58:26.121Z,55.20
2018-04-28T18:00:53.683Z,55.20
2018-04-28T18:03:21.278Z,54.80
2018-04-28T18:05:48.840Z,54.20
2018-04-28T18:08:16.688Z,54.60
2018-04-28T18:10:44.305Z,54.00
2018-04-28T18:13:11.926Z,54.00
2018-04-28T18:15:39.484Z,53.90
2018-04-28T18:18:07.089Z,53.70
2018-04-28T18:20:34.649Z,53.70
2018-04-28T18:23:02.250Z,53.90
2018-04-28T18:25:29.862Z,53.40
2018-04-28T18:27:57.529Z,55.30
2018-04-28T18:30:25.146Z,56.00
2018-04-28T18:32:52.902Z,56.20
2018-04-28T18:35:20.501Z,56.40
2018-04-28T18:37:48.164Z,55.50
2018-04-28T18:40:15.889Z,56.60
2018-04-28T18:42:43.484Z,55.50
2018-04-28T18:45:11.237Z,54.20
2018-04-28T18:47:38.789Z,55.80
2018-04-28T18:50:06.437Z,57.20
2018-04-28T18:52:34.065Z,55.10
2018-04-28T18:55:02.469Z,55.30
2018-04-28T18:57:30.049Z,55.30
2018-04-28T18:59:57.789Z,55.00
2018-04-28T19:02:25.454Z,55.90
2018-04-28T19:04:53.033Z,54.60
2018-04-28T19:07:20.638Z,55.10
2018-04-28T19:09:49.034Z,54.90
2018-04-28T19:12:16.609Z,54.90
2018-04-28T19:14:44.187Z,54.60
2018-04-28T19:17:12.550Z,55.00
2018-04-28T19:19:40.129Z,54.90
2018-04-28T19:22:07.799Z,54.70
2018-04-28T19:24:35.313Z,54.70
2018-04-28T19:27:02.896Z,54.90
2018-04-28T19:29:30.488Z,55.10
2018-04-28T19:31:58.933Z,54.80
2018-04-28T19:34:26.524Z,54.70
2018-04-28T19:36:55.076Z,55.00
2018-04-28T19:39:22.769Z,55.00
2018-04-28T19:41:51.097Z,56.00
2018-04-28T19:44:18.760Z,55.90
2018-04-28T19:46:46.329Z,56.90
2018-04-28T19:49:14.017Z,56.50
2018-04-28T19:51:41.585Z,56.30
2018-04-28T19:54:09.963Z,55.30
2018-04-28T19:56:38.298Z,56.50
2018-04-28T19:59:05.907Z,56.40
2018-04-28T20:01:34.337Z,56.90
2018-04-28T20:04:01.904Z,56.90
2018-04-28T20:06:29.500Z,56.80
2018-04-28T20:08:57.833Z,55.00
2018-04-28T20:11:26.239Z,54.90
2018-04-28T20:13:53.930Z,54.60
2018-04-28T20:16:21.758Z,55.00
2018-04-28T20:18:49.291Z,56.70
2018-04-28T20:21:17.613Z,55.50
2018-04-28T20:23:57.933Z,55.60
2018-04-28T20:26:25.534Z,55.60
2018-04-28T20:28:53.927Z,55.80
2018-04-28T20:31:21.560Z,55.60
2018-04-28T20:33:49.977Z,55.10
2018-04-28T20:36:17.719Z,55.00
2018-04-28T20:38:45.309Z,55.10
2018-04-28T20:41:12.915Z,55.10
2018-04-28T20:43:41.292Z,55.60
2018-04-28T20:46:08.893Z,55.50
2018-04-28T20:48:36.555Z,56.40
2018-04-28T20:51:04.235Z,55.70
2018-04-28T20:53:32.541Z,56.10
2018-04-28T20:56:00.109Z,56.00
2018-04-28T20:58:28.527Z,56.50
2018-04-28T21:00:56.129Z,56.50
2018-04-28T21:03:23.842Z,56.60
2018-04-28T21:05:51.410Z,56.70
2018-04-28T21:08:19.053Z,56.70
2018-04-28T21:10:46.630Z,57.00
2018-04-28T21:13:14.221Z,57.20
2018-04-28T21:15:41.839Z,57.60
2018-04-28T21:18:09.433Z,57.60
2018-04-28T21:20:37.215Z,57.90
2018-04-28T21:23:04.810Z,58.10
2018-04-28T21:25:32.382Z,57.30
2018-04-28T21:27:59.990Z,56.60
2018-04-28T21:30:27.566Z,56.20
2018-04-28T21:32:55.881Z,55.80
2018-04-28T21:35:23.595Z,55.70
2018-04-28T21:37:51.410Z,54.90
2018-04-28T21:40:19.034Z,55.30
2018-04-28T21:42:47.357Z,55.30
2018-04-28T21:45:14.961Z,55.20
2018-04-28T21:47:43.305Z,55.50
2018-04-28T21:50:10.921Z,55.50
2018-04-28T21:52:38.569Z,55.40
2018-04-28T21:55:07.058Z,55.60
2018-04-28T21:57:34.734Z,55.60
2018-04-28T22:00:02.335Z,55.60
2018-04-28T22:02:29.909Z,55.90
2018-04-28T22:04:57.521Z,56.00
2018-04-28T22:07:25.097Z,57.20
2018-04-28T22:09:52.677Z,56.50
2018-04-28T22:12:20.246Z,56.90
2018-04-28T22:14:48.768Z,57.30
2018-04-28T22:17:16.365Z,57.30
2018-04-28T22:19:43.965Z,57.40
2018-04-28T22:22:11.554Z,57.50
2018-04-28T22:24:39.147Z,57.10
2018-04-28T22:27:06.929Z,57.50
2018-04-28T22:29:35.253Z,57.40
2018-04-28T22:32:02.842Z,57.30
2018-04-28T22:34:30.412Z,57.10
2018-04-28T22:36:58.001Z,57.90
2018-04-28T22:39:25.717Z,58.60
2018-04-28T22:41:53.313Z,57.60
2018-04-28T22:44:21.798Z,57.30
2018-04-28T22:46:50.400Z,57.10
2018-04-28T22:49:17.987Z,57.10
2018-04-28T22:51:45.627Z,57.50
2018-04-28T22:54:13.301Z,57.80
2018-04-28T22:56:40.893Z,57.90
2018-04-28T22:59:08.530Z,57.20
2018-04-28T23:01:36.110Z,57.50
2018-04-28T23:04:03.718Z,57.90
2018-04-28T23:06:31.305Z,58.00
2018-04-28T23:08:58.884Z,57.10
2018-04-28T23:11:27.313Z,56.80
2018-04-28T23:13:54.981Z,56.60
2018-04-28T23:16:22.594Z,56.70
2018-04-28T23:18:51.072Z,57.00
2018-04-28T23:21:19.518Z,56.50
2018-04-28T23:23:47.141Z,56.40
2018-04-28T23:26:14.708Z,56.20
2018-04-28T23:28:42.472Z,56.10
2018-04-28T23:31:10.028Z,56.20
2018-04-28T23:33:37.625Z,56.40
2018-04-28T23:36:05.228Z,56.40
2018-04-28T23:38:32.807Z,56.30
2018-04-28T23:41:00.443Z,56.50
2018-04-28T23:43:28.850Z,70.10
2018-04-28T23:45:56.521Z,68.10
2018-04-28T23:48:24.184Z,69.50
2018-04-28T23:50:51.793Z,81.10
2018-04-28T23:53:20.147Z,80.40
2018-04-28T23:55:47.734Z,80.30
2018-04-28T23:58:16.080Z,87.20
